createdAt,value
2022-09-23T00:00:17.987Z,58.90
2022-09-23T00:02:52.428Z,58.80
2022-09-23T00:05:25.098Z,58.80
2022-09-23T00:07:58.119Z,58.90
2022-09-23T00:10:33.324Z,58.70
2022-09-23T00:13:06.563Z,58.80
2022-09-23T00:15:40.267Z,58.70
2022-09-23T00:18:12.850Z,58.60
2022-09-23T00:20:45.808Z,58.70
2022-09-23T00:23:18.084Z,58.80
2022-09-23T00:25:57.654Z,58.80
2022-09-23T00:28:31.529Z,58.70
2022-09-23T00:31:19.140Z,58.70
2022-09-23T00:34:01.950Z,58.70
2022-09-23T00:36:34.697Z,58.50
2022-09-23T00:39:07.502Z,58.50
2022-09-23T00:41:40.582Z,58.50
2022-09-23T00:44:42.521Z,58.50
2022-09-23T00:47:17.782Z,58.40
2022-09-23T00:49:56.646Z,58.40
2022-09-23T00:52:30.256Z,58.40
2022-09-23T00:55:08.064Z,58.40
2022-09-23T00:57:44.110Z,58.30
2022-09-23T01:00:16.600Z,58.40
2022-09-23T01:02:49.229Z,58.30
2022-09-23T01:05:22.286Z,58.30
2022-09-23T01:07:58.167Z,58.30
2022-09-23T01:10:43.649Z,58.30
2022-09-23T01:13:37.398Z,58.20
2022-09-23T01:16:31.674Z,58.20
2022-09-23T01:19:35.947Z,59.10
2022-09-23T01:22:08.705Z,58.20
2022-09-23T01:25:14.818Z,58.20
2022-09-23T01:28:18.321Z,58.10
2022-09-23T01:31:26.259Z,58.10
2022-09-23T01:34:17.458Z,58.20
2022-09-23T01:37:13.411Z,58.20
2022-09-23T01:40:06.133Z,58.20
2022-09-23T01:42:54.846Z,58.10
2022-09-23T01:45:32.334Z,58.20
2022-09-23T01:48:18.511Z,58.10
2022-09-23T01:51:01.019Z,58.10
2022-09-23T01:53:43.745Z,57.90
2022-09-23T01:56:22.739Z,57.90
2022-09-23T01:59:13.327Z,57.90
2022-09-23T02:02:01.852Z,58.00
2022-09-23T02:04:40.205Z,58.90
2022-09-23T02:07:42.015Z,57.90
2022-09-23T02:10:19.882Z,58.00
2022-09-23T02:12:57.857Z,58.00
2022-09-23T02:15:37.150Z,58.00
2022-09-23T02:18:19.801Z,57.90
2022-09-23T02:21:00.639Z,57.90
2022-09-23T02:23:43.440Z,57.90
2022-09-23T02:26:27.116Z,57.70
2022-09-23T02:29:27.172Z,57.70
2022-09-23T02:32:08.990Z,57.70
2022-09-23T02:34:54.534Z,57.90
2022-09-23T02:37:49.048Z,57.90
2022-09-23T02:40:28.679Z,57.90
2022-09-23T02:43:20.018Z,57.90
2022-09-23T02:45:52.517Z,58.10
2022-09-23T02:48:34.349Z,58.10
2022-09-23T02:51:06.920Z,58.30
2022-09-23T02:53:40.357Z,58.40
2022-09-23T02:56:21.500Z,58.50
2022-09-23T02:58:55.350Z,58.60
2022-09-23T03:02:05.314Z,58.70
2022-09-23T03:04:50.757Z,58.80
2022-09-23T03:07:47.030Z,59.00
2022-09-23T03:10:44.484Z,59.00
2022-09-23T03:13:29.137Z,59.00
2022-09-23T03:16:15.446Z,59.10
2022-09-23T03:19:26.696Z,59.10
2022-09-23T03:22:18.739Z,59.10
2022-09-23T03:24:54.162Z,59.00
2022-09-23T03:27:30.216Z,58.90
2022-09-23T03:30:04.268Z,58.90
2022-09-23T03:32:38.641Z,58.90
2022-09-23T03:35:12.764Z,58.80
2022-09-23T03:37:47.222Z,58.80
2022-09-23T03:40:25.552Z,58.80
2022-09-23T03:43:01.603Z,58.70
2022-09-23T03:45:34.829Z,58.70
2022-09-23T03:48:08.092Z,58.70
2022-09-23T03:50:41.184Z,58.60
2022-09-23T03:53:13.970Z,58.70
2022-09-23T03:55:46.821Z,58.80
2022-09-23T03:58:19.367Z,58.80
2022-09-23T04:00:53.332Z,58.90
2022-09-23T04:03:28.326Z,58.90
2022-09-23T04:06:01.080Z,58.90
2022-09-23T04:08:33.640Z,59.00
2022-09-23T04:11:06.343Z,59.00
2022-09-23T04:13:38.919Z,59.00
2022-09-23T04:16:11.593Z,59.10
2022-09-23T04:18:44.098Z,59.10
2022-09-23T04:21:16.954Z,59.10
2022-09-23T04:23:49.458Z,59.10
2022-09-23T04:26:22.016Z,59.10
2022-09-23T04:28:55.718Z,59.10
2022-09-23T04:31:29.042Z,59.10
2022-09-23T04:34:01.735Z,59.00
2022-09-23T04:36:34.218Z,59.00
2022-09-23T04:39:06.833Z,58.90
2022-09-23T04:41:39.428Z,59.00
2022-09-23T04:44:13.571Z,58.90
2022-09-23T04:46:48.460Z,58.90
2022-09-23T04:49:21.136Z,59.00
2022-09-23T04:51:54.739Z,59.00
2022-09-23T04:54:27.607Z,59.00
2022-09-23T04:57:00.112Z,59.00
2022-09-23T04:59:32.563Z,58.90
2022-09-23T05:02:05.143Z,58.90
2022-09-23T05:04:38.287Z,58.90
2022-09-23T05:07:10.792Z,59.00
2022-09-23T05:09:43.289Z,59.00
2022-09-23T05:12:15.817Z,59.00
2022-09-23T05:14:48.732Z,59.00
2022-09-23T05:17:21.784Z,58.90
2022-09-23T05:19:54.221Z,59.10
2022-09-23T05:22:27.154Z,59.10
2022-09-23T05:25:01.833Z,59.30
2022-09-23T05:27:34.336Z,60.10
2022-09-23T05:30:07.540Z,60.40
2022-09-23T05:32:39.972Z,60.70
2022-09-23T05:35:12.448Z,61.10
2022-09-23T05:37:44.947Z,61.40
2022-09-23T05:40:17.596Z,61.80
2022-09-23T05:42:51.609Z,62.00
2022-09-23T05:45:26.820Z,62.20
2022-09-23T05:47:59.497Z,62.30
2022-09-23T05:50:32.026Z,64.60
2022-09-23T05:53:07.296Z,65.30
2022-09-23T05:55:40.173Z,66.40
2022-09-23T05:58:13.337Z,67.50
2022-09-23T06:00:45.803Z,68.50
2022-09-23T06:03:20.567Z,69.40
2022-09-23T06:05:54.386Z,69.50
2022-09-23T06:08:26.995Z,69.80
2022-09-23T06:11:07.388Z,70.20
2022-09-23T06:13:41.121Z,70.30
2022-09-23T06:16:16.282Z,70.60
2022-09-23T06:18:48.883Z,70.80
2022-09-23T06:21:21.507Z,71.10
2022-09-23T06:23:56.979Z,71.30
2022-09-23T06:26:34.093Z,71.40
2022-09-23T06:29:14.719Z,71.70
2022-09-23T06:31:50.050Z,72.00
2022-09-23T06:34:22.626Z,72.30
2022-09-23T06:36:55.800Z,72.50
2022-09-23T06:39:28.376Z,72.50
2022-09-23T06:42:00.926Z,72.50
2022-09-23T06:44:33.385Z,72.60
2022-09-23T06:47:06.061Z,72.60
2022-09-23T06:49:38.600Z,72.50
2022-09-23T06:52:11.255Z,72.20
2022-09-23T06:54:43.754Z,72.00
2022-09-23T06:57:16.216Z,71.70
2022-09-23T06:59:49.179Z,71.40
2022-09-23T07:02:21.754Z,71.40
2022-09-23T07:04:57.641Z,71.30
2022-09-23T07:07:32.864Z,70.80
2022-09-23T07:10:07.094Z,70.60
2022-09-23T07:12:39.975Z,70.40
2022-09-23T07:15:12.471Z,70.10
2022-09-23T07:17:45.015Z,69.60
2022-09-23T07:20:18.111Z,69.50
2022-09-23T07:22:52.438Z,69.10
2022-09-23T07:25:24.969Z,68.60
2022-09-23T07:27:57.499Z,67.40
2022-09-23T07:30:29.990Z,68.40
2022-09-23T07:33:06.472Z,67.50
2022-09-23T07:35:45.277Z,67.30
2022-09-23T07:38:17.930Z,67.30
2022-09-23T07:40:50.511Z,66.60
2022-09-23T07:43:22.963Z,66.70
2022-09-23T07:45:55.811Z,66.80
2022-09-23T07:48:33.264Z,66.30
2022-09-23T07:51:18.517Z,66.30
2022-09-23T07:53:52.573Z,66.20
2022-09-23T07:56:27.825Z,66.40
2022-09-23T07:59:00.652Z,66.10
2022-09-23T08:01:36.794Z,65.90
2022-09-23T08:04:17.937Z,66.30
2022-09-23T08:06:54.302Z,66.20
2022-09-23T08:09:30.201Z,66.20
2022-09-23T08:12:02.806Z,65.70
2022-09-23T08:14:35.453Z,65.50
2022-09-23T08:17:08.360Z,65.10
2022-09-23T08:19:40.835Z,64.20
2022-09-23T08:22:13.391Z,64.20
2022-09-23T08:24:45.980Z,64.00
2022-09-23T08:27:18.446Z,63.80
2022-09-23T08:29:50.958Z,63.50
2022-09-23T08:32:23.411Z,63.60
2022-09-23T08:34:57.151Z,63.50
2022-09-23T08:37:29.647Z,63.40
2022-09-23T08:40:02.447Z,62.10
2022-09-23T08:42:42.990Z,62.00
2022-09-23T08:45:25.768Z,61.80
2022-09-23T08:48:14.232Z,61.20
2022-09-23T08:50:51.921Z,61.50
2022-09-23T08:53:27.843Z,61.40
2022-09-23T08:56:07.283Z,61.10
2022-09-23T08:59:00.898Z,60.50
2022-09-23T09:01:42.272Z,60.40
2022-09-23T09:04:33.900Z,59.90
2022-09-23T09:07:35.275Z,59.90
2022-09-23T09:10:16.878Z,59.10
2022-09-23T09:13:06.975Z,58.40
2022-09-23T09:15:50.125Z,58.20
2022-09-23T09:18:23.011Z,58.40
2022-09-23T09:21:08.058Z,58.10
2022-09-23T09:24:02.860Z,57.70
2022-09-23T09:26:35.643Z,56.50
2022-09-23T09:29:36.088Z,56.60
2022-09-23T09:32:57.940Z,56.60
2022-09-23T09:35:38.648Z,56.70
2022-09-23T09:38:11.135Z,55.40
2022-09-23T09:40:47.900Z,55.40
2022-09-23T09:43:23.514Z,55.20
2022-09-23T09:46:02.414Z,55.30
2022-09-23T09:48:54.004Z,55.30
2022-09-23T09:51:28.383Z,54.90
2022-09-23T09:54:18.353Z,54.70
2022-09-23T09:56:52.756Z,54.30
2022-09-23T09:59:28.968Z,53.70
2022-09-23T10:02:33.798Z,53.50
2022-09-23T10:05:07.937Z,53.40
2022-09-23T10:07:40.450Z,53.30
2022-09-23T10:10:36.443Z,52.80
2022-09-23T10:13:21.250Z,52.50
2022-09-23T10:15:55.163Z,52.50
2022-09-23T10:18:49.536Z,52.20
2022-09-23T10:21:27.953Z,52.10
2022-09-23T10:24:03.318Z,51.60
2022-09-23T10:27:02.362Z,51.80
2022-09-23T10:29:50.030Z,51.50
2022-09-23T10:32:37.631Z,51.40
2022-09-23T10:35:10.907Z,51.50
2022-09-23T10:37:50.988Z,51.50
2022-09-23T10:40:56.226Z,51.30
2022-09-23T10:44:09.812Z,51.30
2022-09-23T10:47:09.462Z,51.00
2022-09-23T10:50:01.079Z,51.10
2022-09-23T10:52:54.577Z,51.00
2022-09-23T10:56:06.953Z,50.40
2022-09-23T10:59:20.756Z,50.50
2022-09-23T11:02:18.324Z,50.80
2022-09-23T11:05:06.769Z,51.20
2022-09-23T11:07:47.038Z,50.70
2022-09-23T11:10:56.019Z,51.00
2022-09-23T11:13:54.583Z,50.20
2022-09-23T11:17:15.911Z,50.40
2022-09-23T11:20:21.779Z,50.30
2022-09-23T11:23:07.983Z,50.60
2022-09-23T11:26:16.676Z,49.80
2022-09-23T11:29:24.318Z,49.90
2022-09-23T11:32:24.917Z,49.90
2022-09-23T11:35:15.355Z,49.70
2022-09-23T11:38:14.277Z,49.90
2022-09-23T11:40:54.995Z,50.00
2022-09-23T11:43:34.668Z,49.80
2022-09-23T11:46:17.264Z,49.80
2022-09-23T11:48:58.740Z,50.00
2022-09-23T11:51:42.919Z,51.00
2022-09-23T11:54:38.139Z,50.10
2022-09-23T11:57:21.650Z,50.20
2022-09-23T12:00:05.998Z,49.90
2022-09-23T12:03:04.646Z,49.80
2022-09-23T12:06:06.918Z,49.90
2022-09-23T12:08:42.202Z,50.10
2022-09-23T12:11:25.747Z,49.90
2022-09-23T12:14:18.474Z,50.10
2022-09-23T12:17:09.322Z,50.40
2022-09-23T12:20:10.932Z,50.60
2022-09-23T12:22:50.139Z,50.50
2022-09-23T12:25:56.235Z,50.70
2022-09-23T12:28:41.648Z,50.60
2022-09-23T12:31:33.844Z,50.60
2022-09-23T12:34:43.547Z,50.50
2022-09-23T12:37:38.660Z,49.90
2022-09-23T12:40:24.730Z,50.20
2022-09-23T12:42:57.597Z,50.30
2022-09-23T12:45:35.960Z,50.50
2022-09-23T12:48:19.310Z,50.30
2022-09-23T12:50:53.425Z,50.30
2022-09-23T12:53:35.341Z,50.60
2022-09-23T12:56:22.609Z,50.30
2022-09-23T12:59:08.298Z,50.10
2022-09-23T13:01:42.388Z,49.80
2022-09-23T13:05:02.638Z,49.90
2022-09-23T13:07:36.864Z,50.00
2022-09-23T13:10:16.686Z,50.00
2022-09-23T13:12:52.098Z,49.80
2022-09-23T13:15:33.278Z,49.90
2022-09-23T13:18:20.985Z,49.90
2022-09-23T13:20:55.158Z,49.80
2022-09-23T13:23:31.436Z,49.80
2022-09-23T13:26:13.664Z,49.80
2022-09-23T13:29:07.256Z,49.80
2022-09-23T13:31:45.293Z,49.80
2022-09-23T13:34:23.353Z,49.70
2022-09-23T13:36:58.198Z,49.40
2022-09-23T13:39:30.652Z,49.40
2022-09-23T13:42:05.185Z,49.50
2022-09-23T13:44:41.271Z,49.30
2022-09-23T13:47:16.832Z,49.00
2022-09-23T13:49:51.583Z,48.80
2022-09-23T13:52:31.339Z,48.60
2022-09-23T13:55:03.977Z,48.60
2022-09-23T13:57:37.121Z,48.60
2022-09-23T14:00:21.227Z,48.60
2022-09-23T14:02:53.761Z,48.60
2022-09-23T14:05:39.645Z,48.70
2022-09-23T14:08:13.345Z,48.60
2022-09-23T14:10:48.930Z,48.60
2022-09-23T14:13:35.030Z,48.50
2022-09-23T14:16:11.629Z,48.40
2022-09-23T14:18:50.950Z,48.30
2022-09-23T14:21:35.442Z,48.00
2022-09-23T14:24:30.650Z,48.00
2022-09-23T14:27:16.018Z,48.00
2022-09-23T14:29:51.510Z,48.10
2022-09-23T14:32:27.793Z,48.30
2022-09-23T14:35:00.439Z,47.80
2022-09-23T14:37:57.522Z,47.90
2022-09-23T14:40:51.143Z,47.90
2022-09-23T14:43:28.698Z,48.20
2022-09-23T14:46:04.675Z,48.20
2022-09-23T14:48:37.163Z,48.30
2022-09-23T14:51:16.062Z,48.30
2022-09-23T14:53:49.682Z,48.30
2022-09-23T14:56:24.665Z,48.30
2022-09-23T14:59:01.322Z,48.30
2022-09-23T15:01:39.423Z,48.20
2022-09-23T15:04:30.857Z,48.20
2022-09-23T15:07:17.735Z,48.30
2022-09-23T15:09:50.292Z,48.50
2022-09-23T15:12:23.011Z,48.70
2022-09-23T15:14:56.970Z,48.70
2022-09-23T15:17:37.707Z,48.80
2022-09-23T15:20:24.497Z,49.00
2022-09-23T15:22:57.655Z,49.00
2022-09-23T15:25:36.023Z,48.90
2022-09-23T15:28:11.518Z,48.90
2022-09-23T15:30:44.237Z,48.90
2022-09-23T15:33:16.720Z,48.90
2022-09-23T15:35:49.681Z,48.90
2022-09-23T15:38:21.997Z,48.70
2022-09-23T15:40:54.572Z,48.90
2022-09-23T15:43:27.775Z,48.90
2022-09-23T15:46:06.461Z,48.90
2022-09-23T15:48:46.447Z,49.00
2022-09-23T15:51:20.920Z,48.90
2022-09-23T15:53:55.239Z,49.20
2022-09-23T15:56:27.670Z,49.30
2022-09-23T15:59:00.912Z,49.20
2022-09-23T16:01:36.674Z,49.20
2022-09-23T16:04:11.895Z,49.20
2022-09-23T16:06:48.566Z,48.90
2022-09-23T16:09:21.106Z,48.80
2022-09-23T16:11:53.641Z,48.80
2022-09-23T16:14:26.054Z,49.00
2022-09-23T16:16:58.638Z,49.10
2022-09-23T16:19:34.372Z,49.10
2022-09-23T16:22:07.013Z,49.20
2022-09-23T16:24:40.685Z,49.10
2022-09-23T16:27:18.038Z,49.10
2022-09-23T16:29:50.608Z,49.20
2022-09-23T16:32:24.343Z,49.30
2022-09-23T16:34:58.659Z,49.20
2022-09-23T16:37:31.133Z,49.20
2022-09-23T16:40:06.471Z,49.30
2022-09-23T16:42:39.476Z,49.40
2022-09-23T16:45:13.530Z,49.40
2022-09-23T16:47:49.163Z,49.50
2022-09-23T16:50:23.575Z,49.50
2022-09-23T16:52:56.567Z,49.50
2022-09-23T16:55:28.939Z,49.60
2022-09-23T16:58:01.345Z,49.60
2022-09-23T17:00:52.602Z,49.50
2022-09-23T17:03:41.104Z,49.70
2022-09-23T17:06:14.791Z,49.60
2022-09-23T17:08:51.296Z,49.70
2022-09-23T17:11:23.886Z,49.80
2022-09-23T17:13:56.832Z,49.80
2022-09-23T17:16:31.006Z,49.90
2022-09-23T17:19:08.522Z,50.00
2022-09-23T17:25:27.319Z,50.00
2022-09-23T17:28:00.343Z,50.10
2022-09-23T17:30:32.890Z,50.10
2022-09-23T17:33:07.547Z,50.30
2022-09-23T17:35:40.921Z,50.30
2022-09-23T17:38:18.631Z,50.30
2022-09-23T17:40:57.112Z,50.10
2022-09-23T17:44:25.709Z,50.20
2022-09-23T17:46:59.009Z,50.30
2022-09-23T17:49:51.438Z,50.30
2022-09-23T17:52:23.938Z,50.40
2022-09-23T17:54:56.467Z,50.40
2022-09-23T17:57:28.987Z,50.30
2022-09-23T18:00:02.946Z,50.20
2022-09-23T18:02:44.022Z,50.20
2022-09-23T18:05:17.281Z,50.00
2022-09-23T18:07:49.821Z,49.90
2022-09-23T18:10:22.569Z,50.00
2022-09-23T18:12:55.469Z,49.90
2022-09-23T18:15:28.185Z,50.10
2022-09-23T18:18:00.698Z,50.10
2022-09-23T18:20:34.148Z,50.20
2022-09-23T18:23:06.725Z,50.20
2022-09-23T18:25:40.072Z,50.00
2022-09-23T18:28:13.556Z,50.10
2022-09-23T18:30:57.536Z,50.00
2022-09-23T18:33:32.556Z,50.00
2022-09-23T18:36:07.010Z,50.10
2022-09-23T18:38:40.951Z,50.20
2022-09-23T18:41:14.083Z,50.20
2022-09-23T18:43:49.204Z,50.30
2022-09-23T18:46:25.816Z,50.20
2022-09-23T18:49:17.639Z,50.30
2022-09-23T18:51:56.019Z,50.20
2022-09-23T18:54:30.819Z,50.30
2022-09-23T18:57:06.641Z,50.30
2022-09-23T18:59:41.210Z,50.40
2022-09-23T19:02:17.331Z,50.40
2022-09-23T19:04:52.817Z,50.30
2022-09-23T19:07:25.768Z,50.30
2022-09-23T19:09:59.227Z,50.40
2022-09-23T19:12:34.012Z,50.60
2022-09-23T19:15:07.771Z,50.70
2022-09-23T19:17:43.227Z,50.70
2022-09-23T19:20:17.269Z,50.70
2022-09-23T19:22:51.504Z,50.70
2022-09-23T19:25:24.454Z,50.70
2022-09-23T19:28:00.341Z,50.70
2022-09-23T19:30:35.751Z,50.60
2022-09-23T19:33:11.777Z,50.50
2022-09-23T19:35:48.854Z,50.50
2022-09-23T19:38:23.770Z,50.40
2022-09-23T19:40:58.136Z,50.40
2022-09-23T19:43:32.152Z,50.30
2022-09-23T19:46:09.390Z,50.20
2022-09-23T19:48:42.638Z,50.20
2022-09-23T19:51:18.905Z,50.20
2022-09-23T19:53:52.124Z,50.10
2022-09-23T19:56:25.412Z,50.10
2022-09-23T19:58:59.476Z,50.00
2022-09-23T20:01:35.684Z,50.00
2022-09-23T20:04:10.560Z,49.90
2022-09-23T20:06:45.801Z,49.80
2022-09-23T20:09:21.754Z,49.70
2022-09-23T20:11:54.881Z,49.60
2022-09-23T20:14:27.382Z,49.50
2022-09-23T20:17:02.866Z,49.30
2022-09-23T20:19:37.932Z,49.40
2022-09-23T20:22:32.258Z,49.20
2022-09-23T20:25:07.463Z,49.00
2022-09-23T20:27:43.700Z,48.90
2022-09-23T20:30:16.668Z,48.80
2022-09-23T20:32:54.040Z,48.80
2022-09-23T20:35:34.601Z,49.10
2022-09-23T20:38:08.355Z,48.90
2022-09-23T20:40:43.158Z,48.80
2022-09-23T20:43:16.331Z,48.70
2022-09-23T20:45:53.327Z,48.60
2022-09-23T20:48:26.131Z,48.60
2022-09-23T20:51:04.356Z,48.60
2022-09-23T20:53:38.639Z,48.50
2022-09-23T20:56:11.771Z,48.50
2022-09-23T20:58:44.824Z,48.50
2022-09-23T21:01:18.537Z,48.50
2022-09-23T21:03:52.560Z,48.50
2022-09-23T21:06:26.429Z,48.50
2022-09-23T21:08:59.496Z,48.40
2022-09-23T21:11:32.397Z,48.40
2022-09-23T21:14:05.218Z,48.70
2022-09-23T21:16:38.783Z,48.50
2022-09-23T21:19:11.882Z,48.40
2022-09-23T21:21:44.287Z,48.40
2022-09-23T21:24:45.689Z,48.60
2022-09-23T21:27:09.720Z,48.40
2022-09-23T21:29:42.433Z,48.40
2022-09-23T21:32:14.978Z,48.40
2022-09-23T21:34:48.568Z,49.50
2022-09-23T21:37:21.844Z,48.40
2022-09-23T21:40:13.344Z,48.30
2022-09-23T21:42:48.127Z,48.20
2022-09-23T21:45:20.812Z,48.20
2022-09-23T21:47:53.560Z,48.10
2022-09-23T21:50:29.732Z,48.10
2022-09-23T21:53:02.303Z,48.10
2022-09-23T21:55:35.009Z,48.00
2022-09-23T21:58:07.804Z,48.00
2022-09-23T22:00:42.205Z,47.90
2022-09-23T22:03:14.699Z,48.20
2022-09-23T22:05:47.345Z,48.00
2022-09-23T22:08:22.322Z,47.90
2022-09-23T22:10:56.252Z,47.90
2022-09-23T22:13:28.796Z,47.90
2022-09-23T22:16:03.488Z,47.90
2022-09-23T22:18:36.106Z,47.80
2022-09-23T22:21:08.582Z,47.80
2022-09-23T22:23:41.049Z,47.80
2022-09-23T22:26:13.558Z,47.80
2022-09-23T22:29:04.710Z,47.80
2022-09-23T22:31:55.483Z,47.70
2022-09-23T22:34:48.550Z,47.70
2022-09-23T22:37:26.338Z,47.60
2022-09-23T22:39:58.816Z,47.60
2022-09-23T22:42:31.564Z,47.70
2022-09-23T22:45:08.237Z,47.60
2022-09-23T22:47:45.698Z,47.60
2022-09-23T22:50:18.364Z,47.60
2022-09-23T22:52:51.066Z,47.60
2022-09-23T22:55:25.529Z,47.50
2022-09-23T22:58:03.690Z,47.50
2022-09-23T23:00:47.930Z,47.50
2022-09-23T23:03:20.708Z,47.40
2022-09-23T23:06:01.184Z,47.40
2022-09-23T23:08:34.438Z,47.30
2022-09-23T23:11:11.204Z,47.30
2022-09-23T23:13:44.010Z,47.30
2022-09-23T23:16:16.886Z,47.30
2022-09-23T23:18:49.186Z,47.20
2022-09-23T23:21:22.266Z,47.50
2022-09-23T23:23:54.904Z,47.40
2022-09-23T23:26:30.002Z,47.30
2022-09-23T23:29:02.477Z,47.30
2022-09-23T23:31:35.179Z,47.30
2022-09-23T23:34:10.934Z,47.30
2022-09-23T23:36:44.830Z,47.20
2022-09-23T23:39:17.337Z,47.20
2022-09-23T23:41:55.711Z,47.20
2022-09-23T23:44:30.728Z,47.30
2022-09-23T23:47:04.709Z,47.20
2022-09-23T23:49:37.291Z,47.30
2022-09-23T23:52:10.113Z,47.20
2022-09-23T23:54:42.552Z,47.30
2022-09-23T23:57:15.099Z,47.20
2022-09-23T23:59:47.783Z,47.20
